Time;durP1;ratioP1;P1;durP2;ratioP2;P2;SDS_P1;SDS_P2;PMS_P1;PMS_P2;Temp;Humidity;BMP_temperature;BMP_pressure;BME280_temperature;BME280_humidity;BME280_pressure;Samples;Min_cycle;Max_cycle;Signal;HPM_P1;HPM_P2
2023/10/01 00:00:49;;;;;;;8.38;5.70;;;14.70;66.20;;;;;;4968826;28;20042;-54
2023/10/01 00:03:20;;;;;;;6.97;5.75;;;14.70;66.40;;;;;;4966321;28;20532;-53
2023/10/01 00:05:48;;;;;;;6.03;5.43;;;14.70;66.50;;;;;;4968213;28;20053;-50
2023/10/01 00:08:15;;;;;;;9.02;6.53;;;14.70;66.50;;;;;;4973548;28;20101;-53
2023/10/01 00:10:42;;;;;;;7.45;5.68;;;14.70;66.50;;;;;;4952736;28;20416;-50
2023/10/01 00:13:11;;;;;;;7.72;6.20;;;14.70;66.60;;;;;;4972664;28;20057;-54
2023/10/01 00:15:39;;;;;;;6.82;5.50;;;14.70;66.60;;;;;;4972938;28;20440;-51
2023/10/01 00:18:08;;;;;;;7.45;6.00;;;14.70;66.60;;;;;;4969394;28;20058;-50
2023/10/01 00:20:35;;;;;;;8.60;5.45;;;14.70;66.80;;;;;;4973001;28;20130;-49
2023/10/01 00:23:05;;;;;;;7.22;5.75;;;14.70;66.70;;;;;;4972492;28;20039;-51
2023/10/01 00:25:34;;;;;;;8.30;6.03;;;14.70;66.80;;;;;;4972157;28;20057;-53
2023/10/01 00:28:04;;;;;;;8.95;6.20;;;14.60;66.90;;;;;;4974304;28;20042;-52
2023/10/01 00:30:34;;;;;;;7.32;5.47;;;14.70;66.80;;;;;;4955130;28;20062;-49
2023/10/01 00:33:10;;;;;;;6.85;4.90;;;14.70;67.00;;;;;;4972320;28;20110;-52
2023/10/01 00:35:40;;;;;;;5.75;5.18;;;14.60;67.00;;;;;;4952325;28;20047;-54
2023/10/01 00:38:08;;;;;;;6.00;4.78;;;14.60;66.80;;;;;;4968882;28;20101;-53
2023/10/01 00:40:43;;;;;;;5.47;4.47;;;14.60;66.80;;;;;;4951054;28;20608;-53
2023/10/01 00:43:12;;;;;;;8.13;4.82;;;14.60;66.90;;;;;;4967085;28;20046;-52
2023/10/01 00:45:39;;;;;;;4.72;4.25;;;14.60;66.80;;;;;;4967322;28;20055;-48
2023/10/01 00:48:11;;;;;;;5.75;4.45;;;14.60;66.80;;;;;;4950173;29;20043;-53
2023/10/01 00:50:38;;;;;;;6.75;4.90;;;14.60;66.90;;;;;;4966188;28;20492;-53
2023/10/01 00:53:05;;;;;;;5.18;4.68;;;14.50;67.00;;;;;;4952512;28;20090;-53
2023/10/01 00:55:32;;;;;;;5.28;4.20;;;14.50;67.10;;;;;;4954000;28;20551;-50
2023/10/01 00:57:59;;;;;;;4.45;3.88;;;14.60;67.30;;;;;;4956369;28;20051;-52
2023/10/01 01:00:26;;;;;;;5.95;4.40;;;14.60;67.20;;;;;;4955179;28;20109;-53
2023/10/01 01:05:36;;;;;;;5.85;4.55;;;14.50;67.10;;;;;;4970634;28;20034;-52
2023/10/01 01:08:28;;;;;;;4.53;3.70;;;14.50;67.20;;;;;;4971781;28;20512;-53
2023/10/01 01:10:58;;;;;;;6.13;4.10;;;14.50;67.30;;;;;;4970295;28;20034;-49
2023/10/01 01:13:28;;;;;;;7.35;3.67;;;14.50;67.30;;;;;;4971412;28;20073;-54
2023/10/01 01:15:57;;;;;;;7.55;4.43;;;14.50;67.30;;;;;;4954389;28;20058;-53
2023/10/01 01:18:34;;;;;;;5.68;4.53;;;14.50;67.50;;;;;;4962633;28;20055;-53
2023/10/01 01:21:09;;;;;;;5.50;3.60;;;14.50;67.60;;;;;;4971068;28;20121;-53
2023/10/01 01:23:36;;;;;;;4.65;3.78;;;14.50;67.60;;;;;;4967555;28;20074;-52
2023/10/01 01:26:03;;;;;;;6.38;3.97;;;14.50;67.80;;;;;;4949308;28;20051;-51
2023/10/01 01:28:35;;;;;;;5.22;3.40;;;14.50;68.10;;;;;;4967129;28;20137;-52
2023/10/01 01:31:04;;;;;;;7.30;4.35;;;14.60;68.40;;;;;;4969827;28;20042;-54
2023/10/01 01:33:44;;;;;;;6.78;3.88;;;14.50;68.80;;;;;;4970732;28;20478;-53
2023/10/01 01:36:12;;;;;;;6.00;4.25;;;14.50;68.80;;;;;;4965993;28;20046;-50
2023/10/01 01:39:09;;;;;;;4.78;3.63;;;14.60;68.90;;;;;;4964486;28;20055;-50
2023/10/01 01:41:43;;;;;;;5.93;3.80;;;14.60;69.50;;;;;;4967691;28;20062;-50
2023/10/01 01:44:14;;;;;;;6.78;5.05;;;14.70;69.20;;;;;;4962948;28;20046;-50
2023/10/01 01:46:52;;;;;;;5.22;3.80;;;14.70;69.50;;;;;;4954916;28;20051;-51
2023/10/01 01:49:21;;;;;;;9.95;4.20;;;14.70;69.60;;;;;;4968698;28;20050;-50
2023/10/01 01:52:03;;;;;;;7.50;3.80;;;14.80;69.70;;;;;;4951977;28;20076;-50
2023/10/01 01:54:39;;;;;;;6.10;3.45;;;14.80;69.80;;;;;;4951525;28;20046;-51
2023/10/01 01:57:14;;;;;;;6.80;4.00;;;14.80;69.90;;;;;;4967984;28;20093;-51
2023/10/01 01:59:46;;;;;;;5.75;3.65;;;14.90;69.90;;;;;;4951305;29;20394;-52
2023/10/01 02:02:19;;;;;;;5.43;3.38;;;14.90;69.80;;;;;;4950417;28;20058;-53
2023/10/01 02:05:00;;;;;;;4.90;4.00;;;14.90;69.90;;;;;;4966010;28;20101;-53
2023/10/01 02:07:33;;;;;;;4.25;3.22;;;15.00;69.70;;;;;;4954226;28;20038;-53
2023/10/01 02:10:00;;;;;;;8.00;4.00;;;15.00;69.60;;;;;;4953890;28;20046;-53
2023/10/01 02:12:30;;;;;;;5.25;4.15;;;15.10;69.60;;;;;;4952862;28;20145;-51
2023/10/01 02:15:02;;;;;;;6.32;3.95;;;15.00;69.60;;;;;;4945647;28;20074;-49
2023/10/01 02:17:29;;;;;;;4.72;3.80;;;15.10;69.60;;;;;;4971961;28;20504;-52
2023/10/01 02:19:58;;;;;;;5.70;3.67;;;15.10;69.60;;;;;;4970322;28;20137;-53
2023/10/01 02:22:27;;;;;;;4.63;3.63;;;15.10;69.60;;;;;;4971168;28;20642;-49
2023/10/01 02:24:56;;;;;;;5.82;3.80;;;15.10;69.60;;;;;;4969488;28;20648;-49
2023/10/01 02:27:28;;;;;;;5.65;3.83;;;15.10;69.60;;;;;;4954212;28;20047;-54
2023/10/01 02:30:12;;;;;;;4.85;3.50;;;15.10;69.60;;;;;;4952754;28;20161;-52
2023/10/01 02:33:16;;;;;;;7.13;3.75;;;15.10;69.60;;;;;;4965744;28;20045;-50
2023/10/01 02:35:42;;;;;;;4.95;3.58;;;15.20;69.60;;;;;;4969798;28;20432;-48
2023/10/01 02:40:57;;;;;;;4.60;3.50;;;15.20;69.60;;;;;;4966109;28;20043;-51
2023/10/01 02:43:36;;;;;;;4.95;3.38;;;15.20;69.50;;;;;;4952100;28;20051;-53
2023/10/01 02:46:11;;;;;;;3.63;2.97;;;15.20;69.40;;;;;;4970140;28;20034;-53
2023/10/01 02:48:42;;;;;;;4.43;3.08;;;15.20;69.50;;;;;;4954190;28;20042;-50
2023/10/01 02:51:15;;;;;;;4.70;2.90;;;15.20;70.00;;;;;;4969742;28;20727;-52
2023/10/01 02:54:01;;;;;;;5.57;3.65;;;15.20;69.40;;;;;;4969827;28;20496;-52
2023/10/01 02:56:33;;;;;;;4.65;3.22;;;15.20;69.30;;;;;;4967603;28;20042;-53
2023/10/01 02:59:09;;;;;;;3.38;2.80;;;15.20;69.30;;;;;;4954608;28;20051;-52
2023/10/01 03:01:38;;;;;;;4.57;3.00;;;15.20;69.20;;;;;;4952172;28;20133;-52
2023/10/01 03:04:18;;;;;;;4.38;2.90;;;15.10;69.10;;;;;;4967077;28;20508;-52
2023/10/01 03:06:54;;;;;;;4.55;3.25;;;15.10;69.10;;;;;;4950172;28;20094;-53
2023/10/01 03:09:33;;;;;;;4.60;2.90;;;15.10;69.00;;;;;;4968060;28;20051;-53
2023/10/01 03:17:55;;;;;;;5.40;3.70;;;15.10;68.80;;;;;;4969818;28;20045;-51
2023/10/01 03:23:08;;;;;;;5.70;3.40;;;15.10;69.50;;;;;;4969285;28;20045;-52
2023/10/01 03:25:40;;;;;;;4.40;3.08;;;15.10;69.50;;;;;;4966153;28;20564;-52
2023/10/01 03:28:25;;;;;;;5.25;3.35;;;15.00;69.50;;;;;;4970508;28;20564;-51
2023/10/01 03:31:06;;;;;;;4.60;3.33;;;15.00;69.70;;;;;;4969019;28;20493;-49
2023/10/01 03:33:40;;;;;;;6.55;3.53;;;15.10;69.60;;;;;;4969365;28;20395;-53
2023/10/01 03:36:09;;;;;;;4.28;2.67;;;15.10;69.50;;;;;;4970113;28;20404;-51
2023/10/01 03:38:43;;;;;;;6.28;3.92;;;15.10;69.40;;;;;;4970271;28;20057;-52
2023/10/01 03:41:20;;;;;;;5.32;3.38;;;15.10;69.60;;;;;;4969316;28;20073;-53
2023/10/01 03:43:50;;;;;;;4.72;3.67;;;15.00;69.30;;;;;;4973408;28;20047;-53
2023/10/01 03:48:59;;;;;;;4.05;3.00;;;15.00;69.20;;;;;;4973948;28;20035;-53
2023/10/01 03:54:20;;;;;;;5.95;3.88;;;15.00;69.30;;;;;;4962066;28;20051;-53
2023/10/01 03:56:57;;;;;;;4.30;3.28;;;14.90;69.20;;;;;;4968564;28;20054;-53
2023/10/01 03:59:27;;;;;;;4.38;3.10;;;15.00;69.30;;;;;;4967285;28;20035;-53
2023/10/01 04:02:00;;;;;;;4.78;3.20;;;14.90;69.30;;;;;;4971519;28;20110;-53
2023/10/01 04:04:29;;;;;;;4.75;3.05;;;14.90;69.30;;;;;;4969133;28;20045;-51
2023/10/01 04:06:59;;;;;;;5.00;2.97;;;14.90;69.30;;;;;;4974028;28;20038;-53
2023/10/01 04:09:27;;;;;;;4.15;3.35;;;14.90;69.40;;;;;;4971518;28;20504;-51
2023/10/01 04:12:27;;;;;;;4.60;3.00;;;14.90;69.30;;;;;;4972428;28;20183;-52
2023/10/01 04:15:01;;;;;;;5.90;3.17;;;14.90;69.20;;;;;;4969917;28;20443;-49
2023/10/01 04:17:28;;;;;;;4.35;2.85;;;14.90;69.10;;;;;;4971293;28;20057;-52
2023/10/01 04:20:00;;;;;;;7.60;3.13;;;14.80;69.00;;;;;;4972499;28;20601;-51
2023/10/01 04:22:29;;;;;;;7.15;3.28;;;14.80;69.00;;;;;;4972510;28;20061;-51
2023/10/01 04:25:11;;;;;;;4.63;3.28;;;14.80;69.00;;;;;;4972439;28;20054;-49
2023/10/01 04:27:42;;;;;;;5.93;3.00;;;14.80;69.10;;;;;;4973304;28;20062;-49
2023/10/01 04:30:10;;;;;;;5.60;3.42;;;14.80;69.00;;;;;;4970804;28;20313;-53
2023/10/01 04:32:39;;;;;;;4.78;3.35;;;14.80;69.00;;;;;;4972694;28;20113;-54
2023/10/01 04:35:17;;;;;;;4.82;3.42;;;14.70;68.90;;;;;;4959717;28;20501;-54
2023/10/01 04:37:56;;;;;;;5.22;3.00;;;14.70;69.10;;;;;;4968676;28;20121;-49
2023/10/01 04:40:35;;;;;;;5.00;3.05;;;14.70;69.00;;;;;;4968316;28;20470;-52
2023/10/01 04:43:08;;;;;;;5.32;3.42;;;14.70;69.00;;;;;;4968504;28;20045;-54
2023/10/01 04:45:40;;;;;;;5.75;2.75;;;14.70;69.00;;;;;;4971967;28;20046;-53
2023/10/01 04:48:22;;;;;;;4.35;2.90;;;14.60;69.00;;;;;;4973354;28;20101;-49
2023/10/01 04:50:55;;;;;;;4.78;3.50;;;14.60;69.10;;;;;;4970978;28;20426;-52
2023/10/01 04:53:25;;;;;;;4.30;3.35;;;14.60;69.10;;;;;;4966372;28;21168;-51
2023/10/01 04:56:06;;;;;;;4.30;2.90;;;14.60;69.10;;;;;;4969278;28;20070;-48
2023/10/01 04:58:37;;;;;;;4.90;2.85;;;14.60;69.10;;;;;;4944017;28;20047;-54
2023/10/01 05:01:11;;;;;;;6.90;4.43;;;14.50;68.90;;;;;;4966622;28;20089;-55
2023/10/01 05:03:49;;;;;;;5.28;3.38;;;14.50;69.10;;;;;;4968846;28;20070;-50
2023/10/01 05:06:22;;;;;;;4.75;3.10;;;14.50;69.10;;;;;;4970452;28;20049;-51
2023/10/01 05:08:55;;;;;;;4.60;3.33;;;14.50;69.10;;;;;;4966800;28;20085;-53
2023/10/01 05:11:29;;;;;;;7.47;3.88;;;14.50;69.10;;;;;;4970245;28;20066;-53
2023/10/01 05:14:04;;;;;;;5.63;3.60;;;14.50;69.10;;;;;;4971401;28;20089;-49
2023/10/01 05:16:38;;;;;;;4.68;3.20;;;14.40;69.20;;;;;;4972328;28;20078;-53
2023/10/01 05:19:12;;;;;;;4.75;3.05;;;14.50;69.40;;;;;;4973154;28;20549;-53
2023/10/01 05:21:47;;;;;;;4.53;3.33;;;14.40;69.40;;;;;;4970091;28;20547;-53
2023/10/01 05:24:18;;;;;;;6.22;3.75;;;14.40;69.70;;;;;;4968274;28;20047;-50
2023/10/01 05:26:47;;;;;;;5.25;3.50;;;14.40;69.60;;;;;;4965384;28;20047;-53
2023/10/01 05:29:20;;;;;;;5.65;4.07;;;14.40;69.70;;;;;;4972649;28;20043;-54
2023/10/01 05:31:48;;;;;;;6.47;3.85;;;14.40;69.70;;;;;;4965602;28;20114;-53
2023/10/01 05:34:17;;;;;;;6.32;3.70;;;14.40;69.90;;;;;;4969428;28;20050;-53
2023/10/01 05:36:44;;;;;;;5.80;3.65;;;14.40;70.60;;;;;;4965768;28;20054;-54
2023/10/01 05:39:11;;;;;;;7.15;4.38;;;14.40;69.90;;;;;;4969805;28;20081;-50
2023/10/01 05:41:44;;;;;;;9.63;4.03;;;14.40;70.00;;;;;;4971786;28;20417;-52
2023/10/01 05:44:23;;;;;;;7.03;4.35;;;14.40;70.00;;;;;;4969330;28;20073;-53
2023/10/01 05:46:51;;;;;;;7.18;3.63;;;14.40;70.30;;;;;;4966521;28;20127;-51
2023/10/01 05:49:22;;;;;;;5.72;3.75;;;14.40;70.10;;;;;;4972421;28;20507;-54
2023/10/01 05:51:48;;;;;;;6.95;4.15;;;14.40;70.30;;;;;;4971989;28;20031;-54
2023/10/01 05:54:21;;;;;;;7.57;4.25;;;14.40;70.20;;;;;;4969930;28;20173;-54
2023/10/01 05:56:48;;;;;;;5.50;4.45;;;14.40;70.20;;;;;;4968508;28;20043;-51
2023/10/01 05:59:20;;;;;;;6.28;4.05;;;14.50;70.40;;;;;;4970806;28;20046;-53
2023/10/01 06:01:50;;;;;;;7.05;3.83;;;14.50;70.40;;;;;;4968237;28;20146;-53
2023/10/01 06:04:19;;;;;;;6.15;4.05;;;14.50;70.40;;;;;;4962838;28;20102;-53
2023/10/01 06:06:46;;;;;;;6.03;4.18;;;14.50;70.40;;;;;;4971712;28;20038;-53
2023/10/01 06:09:15;;;;;;;5.10;3.67;;;14.50;70.50;;;;;;4970908;28;20046;-53
2023/10/01 06:12:03;;;;;;;5.30;3.92;;;14.50;70.40;;;;;;4964762;28;20039;-53
2023/10/01 06:14:38;;;;;;;8.18;4.40;;;14.50;70.50;;;;;;4969406;28;20536;-51
2023/10/01 06:17:08;;;;;;;5.22;3.45;;;14.60;70.40;;;;;;4971020;28;20059;-49
2023/10/01 06:19:40;;;;;;;8.25;3.65;;;14.60;70.40;;;;;;4970054;28;20070;-51
2023/10/01 06:22:13;;;;;;;5.50;4.40;;;14.60;70.50;;;;;;4970670;28;20521;-54
2023/10/01 06:24:46;;;;;;;7.38;4.00;;;14.60;70.50;;;;;;4969669;28;20477;-50
2023/10/01 06:27:20;;;;;;;4.90;3.45;;;14.60;70.60;;;;;;4967752;28;20078;-54
2023/10/01 06:29:50;;;;;;;6.70;3.88;;;14.60;70.60;;;;;;4970747;28;20070;-50
2023/10/01 06:32:19;;;;;;;5.75;3.40;;;14.60;70.70;;;;;;4969732;28;20431;-50
2023/10/01 06:34:47;;;;;;;6.82;3.97;;;14.70;70.80;;;;;;4966175;28;20058;-50
2023/10/01 06:37:14;;;;;;;6.75;3.72;;;14.70;70.80;;;;;;4969974;28;20157;-52
2023/10/01 06:39:43;;;;;;;5.55;3.85;;;14.70;70.90;;;;;;4966215;28;20050;-54
2023/10/01 06:42:19;;;;;;;7.13;3.85;;;14.80;71.00;;;;;;4969953;28;20074;-52
2023/10/01 06:44:55;;;;;;;7.85;3.97;;;14.80;71.10;;;;;;4950165;28;20069;-51
2023/10/01 06:47:23;;;;;;;7.68;4.28;;;15.00;71.30;;;;;;4957675;28;20043;-50
2023/10/01 06:50:00;;;;;;;6.65;4.60;;;14.80;71.30;;;;;;4958276;28;20054;-52
2023/10/01 06:52:28;;;;;;;8.50;4.07;;;14.90;71.50;;;;;;4952355;28;20118;-55
2023/10/01 06:54:59;;;;;;;7.68;4.22;;;14.90;71.80;;;;;;4959415;28;20129;-53
2023/10/01 06:57:33;;;;;;;8.43;4.82;;;14.90;71.80;;;;;;4963776;28;20054;-51
2023/10/01 07:00:00;;;;;;;11.93;5.28;;;15.00;72.20;;;;;;4955225;28;20046;-52
2023/10/01 07:02:27;;;;;;;8.40;4.95;;;15.00;72.20;;;;;;4959129;28;20043;-54
2023/10/01 07:04:58;;;;;;;9.23;5.00;;;15.10;72.40;;;;;;4968944;28;20042;-53
2023/10/01 07:07:28;;;;;;;11.80;6.13;;;15.20;72.50;;;;;;4970841;28;20813;-54
2023/10/01 07:10:00;;;;;;;10.05;5.25;;;15.20;72.60;;;;;;4967127;28;20089;-54
2023/10/01 07:12:27;;;;;;;11.25;5.50;;;15.30;73.00;;;;;;4970798;28;20089;-50
2023/10/01 07:14:54;;;;;;;10.60;5.50;;;15.40;73.00;;;;;;4962917;28;20121;-53
2023/10/01 07:17:24;;;;;;;10.10;6.07;;;15.50;73.00;;;;;;4968358;28;20074;-51
2023/10/01 07:20:18;;;;;;;14.23;6.80;;;15.50;73.00;;;;;;4969178;28;20057;-54
2023/10/01 07:22:45;;;;;;;11.88;6.72;;;15.60;73.00;;;;;;4970984;28;20424;-54
2023/10/01 07:28:19;;;;;;;9.68;5.88;;;15.70;72.80;;;;;;4872178;29;20053;-50
2023/10/01 07:30:51;;;;;;;10.23;5.93;;;15.80;72.70;;;;;;4868658;29;20041;-50
2023/10/01 07:33:20;;;;;;;9.80;5.72;;;15.90;72.70;;;;;;4921299;28;20050;-52
2023/10/01 07:35:58;;;;;;;10.63;5.80;;;16.00;72.80;;;;;;4969943;28;20046;-53
2023/10/01 07:38:31;;;;;;;11.73;6.22;;;16.10;73.00;;;;;;4969303;28;20047;-50
2023/10/01 07:40:58;;;;;;;10.23;5.57;;;16.20;73.00;;;;;;4969764;28;20134;-53
2023/10/01 07:43:27;;;;;;;12.00;6.30;;;16.20;72.80;;;;;;4968096;28;20385;-54
2023/10/01 07:45:58;;;;;;;10.40;5.88;;;16.30;72.80;;;;;;4952856;28;20057;-54
2023/10/01 07:48:29;;;;;;;11.35;5.68;;;16.40;72.80;;;;;;4969865;28;20519;-53
2023/10/01 07:50:56;;;;;;;11.43;5.82;;;16.50;72.70;;;;;;4970785;28;20043;-53
2023/10/01 07:53:25;;;;;;;10.05;6.13;;;16.60;72.70;;;;;;4969345;28;20100;-54
2023/10/01 07:55:53;;;;;;;9.95;4.90;;;16.70;72.80;;;;;;4969265;28;20126;-54
2023/10/01 07:58:23;;;;;;;11.45;5.50;;;16.70;72.40;;;;;;4967055;28;20109;-54
2023/10/01 08:00:59;;;;;;;9.27;5.63;;;16.80;72.30;;;;;;4964612;28;20408;-53
2023/10/01 08:06:10;;;;;;;12.20;6.20;;;17.00;72.30;;;;;;4968265;28;20045;-54
2023/10/01 08:08:47;;;;;;;12.88;6.63;;;17.10;72.00;;;;;;4968587;28;20079;-51
2023/10/01 08:13:59;;;;;;;13.10;6.25;;;17.30;71.70;;;;;;4968275;28;20170;-55
2023/10/01 08:16:27;;;;;;;13.65;6.72;;;17.40;71.50;;;;;;4966117;28;20070;-53
2023/10/01 08:18:59;;;;;;;10.75;6.03;;;17.50;71.30;;;;;;4971024;28;20549;-57
2023/10/01 08:21:39;;;;;;;14.02;6.75;;;17.60;71.20;;;;;;4969272;28;20039;-54
2023/10/01 08:24:18;;;;;;;17.13;6.10;;;17.70;71.10;;;;;;4968825;28;20043;-51
2023/10/01 08:27:03;;;;;;;11.32;6.13;;;17.80;71.10;;;;;;4969881;28;20043;-55
2023/10/01 08:29:59;;;;;;;13.07;6.00;;;17.80;70.70;;;;;;4972548;28;20468;-55
2023/10/01 08:32:22;;;;;;;13.43;7.13;;;17.90;70.50;;;;;;4971261;28;20043;-53
2023/10/01 08:35:02;;;;;;;13.10;6.15;;;18.00;70.50;;;;;;4965646;28;20047;-53
2023/10/01 08:37:32;;;;;;;10.70;6.78;;;18.10;70.50;;;;;;4954883;28;20121;-52
2023/10/01 08:39:59;;;;;;;9.73;5.78;;;18.20;70.40;;;;;;4955894;28;20051;-53
2023/10/01 08:42:28;;;;;;;13.65;5.93;;;18.30;70.20;;;;;;4971538;28;20591;-55
2023/10/01 08:45:08;;;;;;;10.73;5.82;;;18.40;70.20;;;;;;4972357;28;20066;-51
2023/10/01 08:47:37;;;;;;;12.50;6.32;;;18.40;70.10;;;;;;4965816;28;20121;-52
2023/10/01 08:50:17;;;;;;;9.98;6.25;;;18.60;70.20;;;;;;4967860;28;20042;-52
2023/10/01 08:52:57;;;;;;;10.55;5.70;;;18.60;70.70;;;;;;4970629;28;20574;-55
2023/10/01 09:00:50;;;;;;;11.60;6.88;;;18.90;69.40;;;;;;4964838;28;20491;-55
2023/10/01 09:03:28;;;;;;;11.27;6.10;;;19.00;69.50;;;;;;4970233;28;20042;-54
2023/10/01 09:06:03;;;;;;;12.23;6.75;;;19.10;69.30;;;;;;4966948;28;20146;-54
2023/10/01 09:08:32;;;;;;;12.57;6.47;;;19.10;69.20;;;;;;4970821;28;20035;-55
2023/10/01 09:11:02;;;;;;;15.98;6.90;;;19.20;68.90;;;;;;4967713;28;20396;-55
2023/10/01 09:13:30;;;;;;;12.95;6.53;;;19.30;68.90;;;;;;4971616;28;20058;-53
2023/10/01 09:16:10;;;;;;;11.35;7.28;;;19.40;68.80;;;;;;4966903;28;20481;-53
2023/10/01 09:19:30;;;;;;;11.48;6.32;;;19.40;69.10;;;;;;4972587;28;20043;-53
2023/10/01 09:22:08;;;;;;;9.07;6.13;;;19.50;68.90;;;;;;4970231;28;20042;-54
2023/10/01 09:24:38;;;;;;;12.30;6.50;;;19.60;68.30;;;;;;4968798;28;20039;-55
2023/10/01 09:27:30;;;;;;;10.80;6.47;;;19.70;68.40;;;;;;4973673;28;20039;-56
2023/10/01 09:32:51;;;;;;;10.95;5.97;;;19.80;67.90;;;;;;4971889;28;20050;-56
2023/10/01 09:35:31;;;;;;;13.73;6.78;;;19.90;68.00;;;;;;4969031;28;20497;-55
2023/10/01 09:38:12;;;;;;;13.45;7.35;;;20.00;68.10;;;;;;4962744;28;20039;-57
2023/10/01 09:40:44;;;;;;;12.15;6.15;;;20.10;68.10;;;;;;4971838;28;20055;-54
2023/10/01 09:43:19;;;;;;;10.57;6.57;;;20.10;67.80;;;;;;4970854;28;20109;-56
2023/10/01 09:45:49;;;;;;;12.43;6.97;;;20.20;67.50;;;;;;4968251;28;20101;-56
2023/10/01 09:48:35;;;;;;;12.57;6.85;;;20.30;67.40;;;;;;4972114;28;20070;-56
2023/10/01 09:51:16;;;;;;;11.75;6.55;;;20.40;67.10;;;;;;4961595;28;20401;-56
2023/10/01 09:53:55;;;;;;;12.40;6.85;;;20.50;66.30;;;;;;4946179;28;20039;-56
2023/10/01 09:56:27;;;;;;;13.02;6.35;;;20.60;65.90;;;;;;4962350;28;20078;-55
2023/10/01 09:59:03;;;;;;;9.95;5.55;;;20.70;66.10;;;;;;4962170;28;20039;-56
2023/10/01 10:01:33;;;;;;;11.82;5.97;;;20.80;65.80;;;;;;4970276;28;20070;-52
2023/10/01 10:04:03;;;;;;;11.48;6.55;;;20.80;66.00;;;;;;4964666;28;20543;-56
2023/10/01 10:06:31;;;;;;;11.35;6.30;;;20.90;66.20;;;;;;4971871;28;20413;-56
2023/10/01 10:09:04;;;;;;;11.27;6.15;;;21.00;66.10;;;;;;4971462;28;20042;-56
2023/10/01 10:11:44;;;;;;;13.57;7.03;;;21.00;65.70;;;;;;4953614;28;20520;-56
2023/10/01 10:14:24;;;;;;;11.00;6.30;;;21.10;65.90;;;;;;4970198;28;20070;-56
2023/10/01 10:17:18;;;;;;;11.93;6.32;;;21.20;65.50;;;;;;4962017;28;20398;-56
2023/10/01 10:23:16;;;;;;;10.82;6.50;;;21.30;64.90;;;;;;4967154;28;20050;-55
2023/10/01 10:25:44;;;;;;;11.23;6.82;;;21.40;65.50;;;;;;4968926;28;20047;-56
2023/10/01 10:28:21;;;;;;;11.55;6.65;;;21.40;64.70;;;;;;4970331;28;20035;-54
2023/10/01 10:31:33;;;;;;;11.60;7.22;;;21.50;64.80;;;;;;4970420;28;20046;-56
2023/10/01 10:34:21;;;;;;;11.18;6.60;;;21.60;64.50;;;;;;4968335;28;20046;-54
2023/10/01 10:36:50;;;;;;;11.07;5.55;;;21.70;64.00;;;;;;4966287;28;20057;-54
2023/10/01 10:39:47;;;;;;;12.45;6.57;;;21.70;64.60;;;;;;4971900;28;20109;-53
2023/10/01 10:42:29;;;;;;;10.57;6.68;;;21.80;63.60;;;;;;4966130;28;20042;-56
2023/10/01 10:45:24;;;;;;;14.15;7.10;;;21.80;63.90;;;;;;4963409;28;20425;-54
2023/10/01 10:48:02;;;;;;;10.07;5.78;;;21.90;63.30;;;;;;4952475;28;20097;-55
2023/10/01 10:50:56;;;;;;;13.63;7.35;;;22.00;63.60;;;;;;4969097;28;20073;-56
2023/10/01 10:53:42;;;;;;;13.00;6.63;;;22.00;63.20;;;;;;4967637;28;20145;-53
2023/10/01 10:56:13;;;;;;;10.38;6.18;;;22.10;63.60;;;;;;4970956;28;20617;-56
2023/10/01 10:59:01;;;;;;;8.50;5.30;;;22.10;63.30;;;;;;4949119;28;20105;-56
2023/10/01 11:01:43;;;;;;;12.07;6.35;;;22.20;63.20;;;;;;4971575;28;20121;-52
2023/10/01 11:04:11;;;;;;;12.50;6.90;;;22.30;63.20;;;;;;4965936;28;20505;-55
2023/10/01 11:06:42;;;;;;;10.65;7.03;;;22.40;63.20;;;;;;4969021;28;20047;-56
2023/10/01 11:09:26;;;;;;;11.13;6.13;;;22.40;62.80;;;;;;4966048;28;20102;-56
2023/10/01 11:12:19;;;;;;;11.68;6.50;;;22.50;63.20;;;;;;4969721;28;20501;-56
2023/10/01 11:15:19;;;;;;;10.13;5.63;;;22.50;62.60;;;;;;4966637;28;20508;-54
2023/10/01 11:17:49;;;;;;;9.27;6.03;;;22.60;62.70;;;;;;4965147;28;20042;-55
2023/10/01 11:20:22;;;;;;;14.88;6.65;;;22.70;62.20;;;;;;4967733;28;20050;-56
2023/10/01 11:22:54;;;;;;;9.50;5.43;;;22.80;61.90;;;;;;4970632;28;20582;-54
2023/10/01 11:25:22;;;;;;;10.93;5.70;;;22.80;61.60;;;;;;4967099;28;20051;-54
2023/10/01 11:27:54;;;;;;;11.70;6.70;;;22.80;61.30;;;;;;4967277;28;20051;-53
2023/10/01 11:30:20;;;;;;;10.88;7.07;;;22.90;61.70;;;;;;4969708;28;20047;-57
2023/10/01 11:35:59;;;;;;;12.32;5.70;;;22.90;61.00;;;;;;4961665;28;20082;-55
2023/10/01 11:38:28;;;;;;;10.95;6.20;;;23.00;61.20;;;;;;4969302;28;20182;-52
2023/10/01 11:41:38;;;;;;;11.90;6.70;;;23.10;61.30;;;;;;4964612;28;20051;-53
2023/10/01 11:44:06;;;;;;;12.35;6.72;;;23.20;60.30;;;;;;4967210;28;20425;-56
2023/10/01 11:49:34;;;;;;;9.35;6.15;;;23.20;60.10;;;;;;4970078;28;20061;-55
2023/10/01 11:52:25;;;;;;;11.15;6.50;;;23.30;60.30;;;;;;4970553;28;20035;-57
2023/10/01 11:54:55;;;;;;;13.38;6.93;;;23.40;59.80;;;;;;4968755;28;20576;-56
2023/10/01 11:57:23;;;;;;;10.55;6.63;;;23.40;60.70;;;;;;4965732;28;20475;-56
2023/10/01 11:59:55;;;;;;;12.90;6.70;;;23.50;60.30;;;;;;4965808;28;20054;-56
2023/10/01 12:02:26;;;;;;;14.05;6.65;;;23.50;59.70;;;;;;4967711;28;20531;-55
2023/10/01 12:04:58;;;;;;;12.40;6.82;;;23.60;59.00;;;;;;4968066;28;20050;-56
2023/10/01 12:07:32;;;;;;;12.25;6.72;;;23.60;60.10;;;;;;4972140;28;20047;-56
2023/10/01 12:10:04;;;;;;;12.20;6.60;;;23.70;60.40;;;;;;4964567;28;20043;-56
2023/10/01 12:12:36;;;;;;;13.25;6.45;;;23.80;59.80;;;;;;4967509;28;20090;-57
2023/10/01 12:17:49;;;;;;;11.23;7.63;;;23.90;59.50;;;;;;4946088;28;20047;-57
2023/10/01 12:21:24;;;;;;;15.40;6.75;;;24.00;59.80;;;;;;4973685;28;20051;-55
2023/10/01 12:23:13;;;;;;;11.65;6.57;;;24.00;59.60;;;;;;4957112;28;20051;-55
2023/10/01 12:26:31;;;;;;;12.60;6.93;;;24.10;59.00;;;;;;4972722;28;20114;-55
2023/10/01 12:28:30;;;;;;;14.48;7.65;;;24.10;58.30;;;;;;4971468;28;20129;-56
2023/10/01 12:31:00;;;;;;;13.07;7.70;;;24.20;58.80;;;;;;4972996;28;20555;-56
2023/10/01 12:33:38;;;;;;;12.50;7.03;;;24.30;58.60;;;;;;4971511;28;20055;-57
2023/10/01 12:36:32;;;;;;;15.40;7.82;;;24.40;58.60;;;;;;4973544;28;20078;-56
2023/10/01 12:41:47;;;;;;;12.88;7.72;;;24.50;57.70;;;;;;4972071;28;20058;-56
2023/10/01 12:44:24;;;;;;;11.98;7.68;;;24.60;57.10;;;;;;4969429;28;20051;-56
2023/10/01 12:46:55;;;;;;;13.90;7.97;;;24.70;57.30;;;;;;4970366;28;20133;-56
2023/10/01 12:49:22;;;;;;;11.52;7.43;;;24.70;56.60;;;;;;4972591;28;20471;-57
2023/10/01 12:51:53;;;;;;;13.18;7.95;;;24.80;56.60;;;;;;4970564;28;20416;-57
2023/10/01 12:54:27;;;;;;;12.65;7.63;;;24.80;56.60;;;;;;4971080;28;20043;-55
2023/10/01 12:57:12;;;;;;;12.15;7.43;;;24.90;56.70;;;;;;4969736;28;20070;-56
2023/10/01 12:59:43;;;;;;;16.95;8.00;;;25.00;56.30;;;;;;4971052;28;20049;-56
2023/10/01 13:07:50;;;;;;;12.90;7.90;;;25.30;55.80;;;;;;4952015;28;20093;-57
2023/10/01 13:10:18;;;;;;;11.68;7.07;;;25.40;55.80;;;;;;4969684;28;20047;-57
2023/10/01 13:13:08;;;;;;;13.93;7.30;;;25.50;55.40;;;;;;4964911;28;20126;-54
2023/10/01 13:15:43;;;;;;;12.95;7.63;;;25.60;54.60;;;;;;4968468;28;20464;-55
2023/10/01 13:18:22;;;;;;;12.25;8.82;;;25.70;55.80;;;;;;4965345;28;20043;-56
2023/10/01 13:23:25;;;;;;;14.60;8.75;;;25.90;54.40;;;;;;4966845;28;20047;-55
2023/10/01 13:26:09;;;;;;;12.07;7.90;;;26.00;54.10;;;;;;4964753;28;20054;-56
2023/10/01 13:28:46;;;;;;;12.52;7.80;;;26.10;54.10;;;;;;4952174;28;20093;-56
2023/10/01 13:34:06;;;;;;;14.05;7.70;;;26.40;53.60;;;;;;4970784;28;20113;-57
2023/10/01 13:39:44;;;;;;;11.95;8.18;;;27.10;53.50;;;;;;4968992;28;20050;-56
2023/10/01 14:09:54;;;;;;;11.43;8.63;;;37.70;39.80;;;;;;4964448;28;20085;-55
2023/10/01 14:15:21;;;;;;;11.68;7.90;;;38.90;38.40;;;;;;4969856;28;20134;-54
2023/10/01 14:17:52;;;;;;;10.17;8.23;;;39.60;36.20;;;;;;4969076;28;20045;-56
2023/10/01 14:20:37;;;;;;;10.73;9.10;;;40.10;36.30;;;;;;4967904;28;20070;-55
2023/10/01 14:23:07;;;;;;;11.38;9.05;;;40.50;35.50;;;;;;4962047;28;20046;-55
2023/10/01 14:25:52;;;;;;;10.68;8.65;;;41.00;34.90;;;;;;4957969;28;20818;-53
2023/10/01 14:28:20;;;;;;;10.27;8.13;;;41.30;33.40;;;;;;4945311;28;20464;-55
2023/10/01 14:30:59;;;;;;;12.52;9.00;;;41.70;33.40;;;;;;4965443;28;20034;-55
2023/10/01 14:33:27;;;;;;;10.50;8.57;;;42.00;32.90;;;;;;4967073;28;20563;-55
2023/10/01 14:35:55;;;;;;;11.65;9.25;;;42.20;32.40;;;;;;4966830;28;20141;-55
2023/10/01 14:38:33;;;;;;;9.60;8.30;;;42.40;31.60;;;;;;4970336;28;20070;-54
2023/10/01 14:41:00;;;;;;;12.43;9.73;;;42.70;30.80;;;;;;4968745;28;20047;-55
2023/10/01 14:43:26;;;;;;;11.73;9.77;;;42.80;30.80;;;;;;4962918;28;20049;-55
2023/10/01 14:45:53;;;;;;;12.52;10.05;;;43.00;30.20;;;;;;4957680;28;20130;-55
2023/10/01 14:48:23;;;;;;;10.73;9.02;;;43.20;30.20;;;;;;4960616;28;20578;-55
2023/10/01 14:50:56;;;;;;;11.45;9.93;;;43.30;29.90;;;;;;4967119;28;20062;-55
2023/10/01 14:53:26;;;;;;;12.43;9.63;;;43.40;29.60;;;;;;4964663;28;20062;-56